createdAt,value
2022-10-11T00:00:55.012Z,5.20
2022-10-11T00:01:56.671Z,5.20
2022-10-11T00:02:58.259Z,5.00
2022-10-11T00:03:59.889Z,5.30
2022-10-11T00:05:01.522Z,5.97
2022-10-11T00:06:05.781Z,5.70
2022-10-11T00:07:07.754Z,5.25
2022-10-11T00:08:09.425Z,5.35
2022-10-11T00:09:11.762Z,5.63
2022-10-11T00:10:13.312Z,6.20
2022-10-11T00:11:14.877Z,5.20
2022-10-11T00:12:16.435Z,5.30
2022-10-11T00:13:18.192Z,5.53
2022-10-11T00:14:19.852Z,5.50
2022-10-11T00:15:21.689Z,5.07
2022-10-11T00:16:23.257Z,5.07
2022-10-11T00:17:24.805Z,6.10
2022-10-11T00:18:26.477Z,6.28
2022-10-11T00:19:28.105Z,5.72
2022-10-11T00:20:29.730Z,5.95
2022-10-11T00:21:31.741Z,5.78
2022-10-11T00:22:34.368Z,5.80
2022-10-11T00:23:36.104Z,5.80
2022-10-11T00:24:37.756Z,5.53
2022-10-11T00:25:39.349Z,5.97
2022-10-11T00:26:45.708Z,5.60
2022-10-11T00:27:48.265Z,6.03
2022-10-11T00:28:51.995Z,6.07
2022-10-11T00:29:53.677Z,5.70
2022-10-11T00:30:55.310Z,6.00
2022-10-11T00:31:56.868Z,5.68
2022-10-11T00:32:58.453Z,6.03
2022-10-11T00:34:00.007Z,6.05
2022-10-11T00:35:06.312Z,6.07
2022-10-11T00:36:09.117Z,5.65
2022-10-11T00:37:11.020Z,5.43
2022-10-11T00:38:12.636Z,6.32
2022-10-11T00:39:14.584Z,5.03
2022-10-11T00:40:17.645Z,5.90
2022-10-11T00:41:19.228Z,5.75
2022-10-11T00:42:20.784Z,6.20
2022-10-11T00:43:24.699Z,5.60
2022-10-11T00:44:27.704Z,6.00
2022-10-11T00:45:32.346Z,5.82
2022-10-11T00:46:33.970Z,5.57
2022-10-11T00:47:35.520Z,5.97
2022-10-11T00:48:40.639Z,6.25
2022-10-11T00:49:42.978Z,5.57
2022-10-11T00:50:44.623Z,6.50
2022-10-11T00:51:49.680Z,6.38
2022-10-11T00:52:54.997Z,5.95
2022-10-11T00:53:56.590Z,6.07
2022-10-11T00:55:00.081Z,5.55
2022-10-11T00:56:14.626Z,5.78
2022-10-11T00:57:19.970Z,6.40
2022-10-11T00:58:21.658Z,5.68
2022-10-11T00:59:25.677Z,5.72
2022-10-11T01:00:27.274Z,5.60
2022-10-11T01:01:28.982Z,6.05
2022-10-11T01:02:30.689Z,6.22
2022-10-11T01:03:32.256Z,6.40
2022-10-11T01:04:34.350Z,5.90
2022-10-11T01:05:36.748Z,6.35
2022-10-11T01:06:38.363Z,6.38
2022-10-11T01:07:40.002Z,6.15
2022-10-11T01:08:41.572Z,6.68
2022-10-11T01:09:43.154Z,6.30
2022-10-11T01:10:44.759Z,6.38
2022-10-11T01:11:46.371Z,6.30
2022-10-11T01:13:08.491Z,6.60
2022-10-11T01:14:17.413Z,6.30
2022-10-11T01:16:11.382Z,5.53
2022-10-11T01:17:12.920Z,5.70
2022-10-11T01:18:35.880Z,5.88
2022-10-11T01:19:55.984Z,6.70
2022-10-11T01:21:19.249Z,6.32
2022-10-11T01:22:35.768Z,6.55
2022-10-11T01:24:04.702Z,7.28
2022-10-11T01:25:43.198Z,6.80
2022-10-11T01:26:50.781Z,6.30
2022-10-11T01:28:07.632Z,6.50
2022-10-11T01:29:30.250Z,6.33
2022-10-11T01:30:35.244Z,6.32
2022-10-11T01:31:44.308Z,6.88
2022-10-11T01:32:51.976Z,7.03
2022-10-11T01:33:55.812Z,6.70
2022-10-11T01:35:23.533Z,6.50
2022-10-11T01:36:34.251Z,6.53
2022-10-11T01:37:45.102Z,6.47
2022-10-11T01:38:49.751Z,7.18
2022-10-11T01:40:15.076Z,6.72
2022-10-11T01:41:22.275Z,7.10
2022-10-11T01:42:23.813Z,7.00
2022-10-11T01:43:25.515Z,6.82
2022-10-11T01:44:27.244Z,7.25
2022-10-11T01:45:28.809Z,7.97
2022-10-11T01:46:30.495Z,7.38
2022-10-11T01:47:32.115Z,7.45
2022-10-11T01:48:33.712Z,7.13
2022-10-11T01:49:35.284Z,7.38
2022-10-11T01:50:49.718Z,7.47
2022-10-11T01:51:52.987Z,7.80
2022-10-11T01:52:54.557Z,7.25
2022-10-11T01:54:03.085Z,7.50
2022-10-11T01:55:19.549Z,7.80
2022-10-11T01:56:51.569Z,7.75
2022-10-11T01:58:18.477Z,7.13
2022-10-11T01:59:44.430Z,6.65
2022-10-11T02:01:00.841Z,7.25
2022-10-11T02:02:02.450Z,8.52
2022-10-11T02:03:29.256Z,7.47
2022-10-11T02:04:37.898Z,7.23
2022-10-11T02:05:47.332Z,7.38
2022-10-11T02:07:06.448Z,7.38
2022-10-11T02:08:19.660Z,6.90
2022-10-11T02:09:22.706Z,7.03
2022-10-11T02:10:48.679Z,7.53
2022-10-11T02:11:50.716Z,7.65
2022-10-11T02:12:59.256Z,7.57
2022-10-11T02:14:07.743Z,7.70
2022-10-11T02:15:09.755Z,7.07
2022-10-11T02:16:13.220Z,7.80
2022-10-11T02:17:19.939Z,7.63
2022-10-11T02:18:24.666Z,7.20
2022-10-11T02:19:28.075Z,7.43
2022-10-11T02:20:30.366Z,7.70
2022-10-11T02:21:31.987Z,8.20
2022-10-11T02:22:37.887Z,7.63
2022-10-11T02:23:42.231Z,7.95
2022-10-11T02:24:45.464Z,7.57
2022-10-11T02:25:47.056Z,8.73
2022-10-11T02:26:52.976Z,9.47
2022-10-11T02:27:55.892Z,11.63
2022-10-11T02:28:58.204Z,9.88
2022-10-11T02:30:01.195Z,15.68
2022-10-11T02:31:03.245Z,13.35
2022-10-11T02:32:05.934Z,10.40
2022-10-11T02:33:07.805Z,10.23
2022-10-11T02:34:31.351Z,10.25
2022-10-11T02:35:34.661Z,8.80
2022-10-11T02:36:48.139Z,9.50
2022-10-11T02:37:59.628Z,8.07
2022-10-11T02:39:07.634Z,7.10
2022-10-11T02:40:09.410Z,8.75
2022-10-11T02:41:30.282Z,9.18
2022-10-11T02:42:43.057Z,8.07
2022-10-11T02:43:57.382Z,8.05
2022-10-11T02:45:05.894Z,7.43
2022-10-11T02:46:08.060Z,8.02
2022-10-11T02:47:10.065Z,8.98
2022-10-11T02:48:11.708Z,8.77
2022-10-11T02:49:13.388Z,9.20
2022-10-11T02:50:15.073Z,10.30
2022-10-11T02:51:17.351Z,9.15
2022-10-11T02:52:18.911Z,9.23
2022-10-11T02:53:20.834Z,8.80
2022-10-11T02:54:23.453Z,8.45
2022-10-11T02:55:25.048Z,7.88
2022-10-11T02:56:26.672Z,8.43
2022-10-11T02:57:28.217Z,8.07
2022-10-11T02:58:29.776Z,9.40
2022-10-11T02:59:31.320Z,8.40
2022-10-11T03:00:32.977Z,7.47
2022-10-11T03:01:34.570Z,7.32
2022-10-11T03:02:36.345Z,7.00
2022-10-11T03:03:37.910Z,7.75
2022-10-11T03:04:39.467Z,7.05
2022-10-11T03:05:41.604Z,7.38
2022-10-11T03:06:43.175Z,7.30
2022-10-11T03:07:44.808Z,7.07
2022-10-11T03:08:46.371Z,7.55
2022-10-11T03:09:47.914Z,7.07
2022-10-11T03:10:49.455Z,7.15
2022-10-11T03:11:51.015Z,7.60
2022-10-11T03:12:52.722Z,7.00
2022-10-11T03:13:55.554Z,7.43
2022-10-11T03:14:57.360Z,7.70
2022-10-11T03:16:03.358Z,6.45
2022-10-11T03:17:31.088Z,7.25
2022-10-11T03:18:27.252Z,7.30
2022-10-11T03:19:28.903Z,6.40
2022-10-11T03:20:30.534Z,6.93
2022-10-11T03:21:32.179Z,7.32
2022-10-11T03:22:33.757Z,7.03
2022-10-11T03:23:35.346Z,7.82
2022-10-11T03:24:36.982Z,7.80
2022-10-11T03:25:38.746Z,6.57
2022-10-11T03:26:40.320Z,6.60
2022-10-11T03:27:41.893Z,6.78
2022-10-11T03:28:43.492Z,6.28
2022-10-11T03:29:45.167Z,7.53
2022-10-11T03:30:50.423Z,7.10
2022-10-11T03:31:52.016Z,7.55
2022-10-11T03:32:53.562Z,7.10
2022-10-11T03:33:55.155Z,7.65
2022-10-11T03:34:56.777Z,8.25
2022-10-11T03:35:58.332Z,6.90
2022-10-11T03:36:59.887Z,7.03
2022-10-11T03:38:01.474Z,7.28
2022-10-11T03:39:03.659Z,7.22
2022-10-11T03:40:06.630Z,7.95
2022-10-11T03:41:08.241Z,6.77
2022-10-11T03:42:09.804Z,6.20
2022-10-11T03:43:11.497Z,7.20
2022-10-11T03:44:13.078Z,7.32
2022-10-11T03:45:14.685Z,7.35
2022-10-11T03:46:16.319Z,7.30
2022-10-11T03:47:18.216Z,6.85
2022-10-11T03:48:19.761Z,7.50
2022-10-11T03:49:21.314Z,6.97
2022-10-11T03:50:23.015Z,7.45
2022-10-11T03:51:24.586Z,8.20
2022-10-11T03:52:26.171Z,7.60
2022-10-11T03:53:27.739Z,8.70
2022-10-11T03:54:29.344Z,9.02
2022-10-11T03:55:30.992Z,8.10
2022-10-11T03:56:32.671Z,7.65
2022-10-11T03:57:34.263Z,7.55
2022-10-11T03:58:35.851Z,7.82
2022-10-11T03:59:37.477Z,8.23
2022-10-11T04:00:39.344Z,7.30
2022-10-11T04:01:41.018Z,7.37
2022-10-11T04:02:42.622Z,7.53
2022-10-11T04:03:44.187Z,7.55
2022-10-11T04:04:45.793Z,7.07
2022-10-11T04:05:47.504Z,7.00
2022-10-11T04:06:49.090Z,7.65
2022-10-11T04:07:50.944Z,7.97
2022-10-11T04:08:52.546Z,9.25
2022-10-11T04:09:54.088Z,8.05
2022-10-11T04:10:55.733Z,7.97
2022-10-11T04:11:57.333Z,8.43
2022-10-11T04:12:59.008Z,7.50
2022-10-11T04:14:00.649Z,8.50
2022-10-11T04:15:02.210Z,7.47
2022-10-11T04:16:04.224Z,8.45
2022-10-11T04:17:06.461Z,7.93
2022-10-11T04:18:08.161Z,7.93
2022-10-11T04:19:09.715Z,8.40
2022-10-11T04:20:11.376Z,8.40
2022-10-11T04:21:12.896Z,8.25
2022-10-11T04:22:14.511Z,8.47
2022-10-11T04:23:16.063Z,8.50
2022-10-11T04:24:17.610Z,8.80
2022-10-11T04:25:19.170Z,9.25
2022-10-11T04:26:20.777Z,8.30
2022-10-11T04:27:22.320Z,7.93
2022-10-11T04:28:23.959Z,8.55
2022-10-11T04:29:28.860Z,8.23
2022-10-11T04:30:33.911Z,8.43
2022-10-11T04:31:35.541Z,9.02
2022-10-11T04:32:37.210Z,8.97
2022-10-11T04:33:38.766Z,8.75
2022-10-11T04:34:40.395Z,8.13
2022-10-11T04:35:41.978Z,7.70
2022-10-11T04:36:47.559Z,7.95
2022-10-11T04:37:51.282Z,7.45
2022-10-11T04:38:56.137Z,7.38
2022-10-11T04:39:57.689Z,7.35
2022-10-11T04:41:14.241Z,8.43
2022-10-11T04:42:16.467Z,7.32
2022-10-11T04:43:19.113Z,6.70
2022-10-11T04:44:20.694Z,7.30
2022-10-11T04:45:22.280Z,8.00
2022-10-11T04:46:23.961Z,7.72
2022-10-11T04:47:25.551Z,8.18
2022-10-11T04:48:27.165Z,8.20
2022-10-11T04:49:28.728Z,7.90
2022-10-11T04:50:30.304Z,7.30
2022-10-11T04:51:33.751Z,7.43
2022-10-11T04:52:35.316Z,8.27
2022-10-11T04:53:36.948Z,8.10
2022-10-11T04:54:38.510Z,8.88
2022-10-11T04:55:40.323Z,8.48
2022-10-11T04:56:41.852Z,8.07
2022-10-11T04:57:43.401Z,8.50
2022-10-11T04:58:45.615Z,8.27
2022-10-11T04:59:50.163Z,9.13
2022-10-11T05:00:51.988Z,8.00
2022-10-11T05:01:53.605Z,8.55
2022-10-11T05:02:55.329Z,8.27
2022-10-11T05:03:56.991Z,7.80
2022-10-11T05:04:58.768Z,7.15
2022-10-11T05:06:05.176Z,7.88
2022-10-11T05:07:07.351Z,7.88
2022-10-11T05:08:08.907Z,8.02
2022-10-11T05:09:10.524Z,7.90
2022-10-11T05:10:12.159Z,8.63
2022-10-11T05:11:16.012Z,8.02
2022-10-11T05:12:17.849Z,8.27
2022-10-11T05:13:19.659Z,7.57
2022-10-11T05:14:21.428Z,7.70
2022-10-11T05:15:23.115Z,7.88
2022-10-11T05:16:24.782Z,7.55
2022-10-11T05:17:26.340Z,7.72
2022-10-11T05:18:28.092Z,8.40
2022-10-11T05:19:29.673Z,8.05
2022-10-11T05:20:31.277Z,8.13
2022-10-11T05:21:32.918Z,7.82
2022-10-11T05:22:34.487Z,8.52
2022-10-11T05:23:36.766Z,8.52
2022-10-11T05:24:38.396Z,8.37
2022-10-11T05:25:39.979Z,8.13
2022-10-11T05:26:41.523Z,11.57
2022-10-11T05:27:43.104Z,9.38
2022-10-11T05:28:44.896Z,8.07
2022-10-11T05:29:46.570Z,7.72
2022-10-11T05:30:48.138Z,9.07
2022-10-11T05:31:49.694Z,9.02
2022-10-11T05:32:51.253Z,9.98
2022-10-11T05:33:52.895Z,8.20
2022-10-11T05:34:54.564Z,7.77
2022-10-11T05:35:56.122Z,8.43
2022-10-11T05:36:57.674Z,8.20
2022-10-11T05:37:59.241Z,8.35
2022-10-11T05:39:00.862Z,7.43
2022-10-11T05:40:02.475Z,7.80
2022-10-11T05:41:04.234Z,8.35
2022-10-11T05:42:09.711Z,8.00
2022-10-11T05:43:11.947Z,8.30
2022-10-11T05:44:13.584Z,7.13
2022-10-11T05:45:15.188Z,8.30
2022-10-11T05:46:16.939Z,7.60
2022-10-11T05:47:18.482Z,7.30
2022-10-11T05:48:20.133Z,7.20
2022-10-11T05:49:21.795Z,8.10
2022-10-11T05:50:24.544Z,13.95
2022-10-11T05:51:26.342Z,33.33
2022-10-11T05:52:27.928Z,43.90
2022-10-11T05:53:29.720Z,46.08
2022-10-11T05:54:31.559Z,45.17
2022-10-11T05:55:37.741Z,44.97
2022-10-11T05:56:39.729Z,42.40
2022-10-11T05:57:41.371Z,40.45
2022-10-11T05:58:42.918Z,40.60
2022-10-11T05:59:44.549Z,41.65
2022-10-11T06:00:46.107Z,41.55
2022-10-11T06:01:47.781Z,25.98
2022-10-11T06:02:49.462Z,20.05
2022-10-11T06:03:51.156Z,20.27
2022-10-11T06:04:52.835Z,14.95
2022-10-11T06:06:03.234Z,15.63
2022-10-11T06:07:05.123Z,18.27
2022-10-11T06:08:07.311Z,21.55
2022-10-11T06:09:09.401Z,25.40
2022-10-11T06:10:11.087Z,24.48
2022-10-11T06:11:13.848Z,24.95
2022-10-11T06:12:15.398Z,23.08
2022-10-11T06:13:17.115Z,21.38
2022-10-11T06:14:19.295Z,23.02
2022-10-11T06:15:20.863Z,23.20
2022-10-11T06:16:22.537Z,22.57
2022-10-11T06:17:24.157Z,22.00
2022-10-11T06:18:25.719Z,20.42
2022-10-11T06:19:27.319Z,19.75
2022-10-11T06:20:28.943Z,19.13
2022-10-11T06:21:30.641Z,19.05
2022-10-11T06:22:32.224Z,19.40
2022-10-11T06:23:33.808Z,20.60
2022-10-11T06:24:35.431Z,20.13
2022-10-11T06:25:36.970Z,18.13
2022-10-11T06:26:38.555Z,19.07
2022-10-11T06:27:40.135Z,21.98
2022-10-11T06:28:41.771Z,20.98
2022-10-11T06:29:43.363Z,19.92
2022-10-11T06:30:44.939Z,19.85
2022-10-11T06:31:48.059Z,16.92
2022-10-11T06:32:49.585Z,15.48
2022-10-11T06:33:51.243Z,15.77
2022-10-11T06:34:52.865Z,16.38
2022-10-11T06:35:59.074Z,17.08
2022-10-11T06:37:00.641Z,17.80
2022-10-11T06:38:02.224Z,16.35
2022-10-11T06:39:03.898Z,15.43
2022-10-11T06:40:05.963Z,15.43
2022-10-11T06:41:14.497Z,15.30
2022-10-11T06:42:16.144Z,16.42
2022-10-11T06:43:17.694Z,14.40
2022-10-11T06:44:19.457Z,12.57
2022-10-11T06:45:21.275Z,11.98
2022-10-11T06:46:24.937Z,12.68
2022-10-11T06:47:26.470Z,11.97
2022-10-11T06:48:28.073Z,11.20
2022-10-11T06:49:29.660Z,10.70
2022-10-11T06:50:57.889Z,11.00
2022-10-11T06:51:52.918Z,10.05
2022-10-11T06:52:54.494Z,10.25
2022-10-11T06:53:57.943Z,10.27
2022-10-11T06:54:59.604Z,11.07
2022-10-11T06:56:05.448Z,11.55
2022-10-11T06:57:07.130Z,10.35
2022-10-11T06:58:08.710Z,10.00
2022-10-11T06:59:10.291Z,9.30
2022-10-11T07:00:12.931Z,9.38
2022-10-11T07:01:16.950Z,9.45
2022-10-11T07:02:18.574Z,10.05
2022-10-11T07:03:20.124Z,10.10
2022-10-11T07:04:21.709Z,9.80
2022-10-11T07:05:23.666Z,9.90
2022-10-11T07:06:26.660Z,9.90
2022-10-11T07:07:28.236Z,10.60
2022-10-11T07:08:29.978Z,9.83
2022-10-11T07:09:31.554Z,9.57
2022-10-11T07:10:33.126Z,9.15
2022-10-11T07:11:34.843Z,9.27
2022-10-11T07:12:36.375Z,9.32
2022-10-11T07:13:38.357Z,9.93
2022-10-11T07:14:40.654Z,9.48
2022-10-11T07:15:42.243Z,8.73
2022-10-11T07:16:43.870Z,8.75
2022-10-11T07:17:45.618Z,8.77
2022-10-11T07:18:47.489Z,8.93
2022-10-11T07:19:49.082Z,9.30
2022-10-11T07:20:50.630Z,9.05
2022-10-11T07:21:52.245Z,9.65
2022-10-11T07:22:53.823Z,9.55
2022-10-11T07:23:55.442Z,9.70
2022-10-11T07:24:57.046Z,9.38
2022-10-11T07:25:58.651Z,9.63
2022-10-11T07:27:01.159Z,9.38
2022-10-11T07:28:02.747Z,9.80
2022-10-11T07:29:04.417Z,9.20
2022-10-11T07:30:06.731Z,9.57
2022-10-11T07:31:17.427Z,10.07
2022-10-11T07:32:19.040Z,10.63
2022-10-11T07:33:20.645Z,10.40
2022-10-11T07:34:23.060Z,9.93
2022-10-11T07:35:24.650Z,10.32
2022-10-11T07:36:26.263Z,10.20
2022-10-11T07:37:27.883Z,10.38
2022-10-11T07:38:29.503Z,10.73
2022-10-11T07:39:31.831Z,9.40
2022-10-11T07:40:34.057Z,9.50
2022-10-11T07:41:38.180Z,9.88
2022-10-11T07:42:42.342Z,10.43
2022-10-11T07:43:43.948Z,10.27
2022-10-11T07:44:45.645Z,10.57
2022-10-11T07:45:48.879Z,10.43
2022-10-11T07:46:50.454Z,10.48
2022-10-11T07:47:52.017Z,11.75
2022-10-11T07:48:53.585Z,10.43
2022-10-11T07:49:55.221Z,10.30
2022-10-11T07:51:06.905Z,10.63
2022-10-11T07:52:08.745Z,11.50
2022-10-11T07:53:10.336Z,10.57
2022-10-11T07:54:11.952Z,11.10
2022-10-11T07:55:13.570Z,10.10
2022-10-11T07:56:16.864Z,10.95
2022-10-11T07:57:18.435Z,10.32
2022-10-11T07:58:19.995Z,10.65
2022-10-11T07:59:21.575Z,10.38
2022-10-11T08:00:23.695Z,11.10
2022-10-11T08:01:26.092Z,11.80
2022-10-11T08:02:27.731Z,10.88
2022-10-11T08:03:29.528Z,10.05
2022-10-11T08:04:31.145Z,10.60
2022-10-11T08:05:33.096Z,10.25
2022-10-11T08:06:36.571Z,10.50
2022-10-11T08:07:38.192Z,10.70
2022-10-11T08:08:39.829Z,10.55
2022-10-11T08:09:41.607Z,10.73
2022-10-11T08:10:43.299Z,10.73
2022-10-11T08:11:44.873Z,11.48
2022-10-11T08:12:49.519Z,11.02
2022-10-11T08:13:51.416Z,10.57
2022-10-11T08:14:54.901Z,11.38
2022-10-11T08:15:56.513Z,11.20
2022-10-11T08:16:58.139Z,11.70
2022-10-11T08:17:59.829Z,12.95
2022-10-11T08:19:03.101Z,13.25
2022-10-11T08:20:05.027Z,12.73
2022-10-11T08:21:10.910Z,13.27
2022-10-11T08:22:12.550Z,13.07
2022-10-11T08:23:14.142Z,13.10
2022-10-11T08:24:16.547Z,12.68
2022-10-11T08:25:18.120Z,12.20
2022-10-11T08:26:19.710Z,12.02
2022-10-11T08:27:21.324Z,11.88
2022-10-11T08:28:22.938Z,12.32
2022-10-11T08:29:24.537Z,13.50
2022-10-11T08:30:26.173Z,13.32
2022-10-11T08:31:27.798Z,12.50
2022-10-11T08:32:30.480Z,13.85
2022-10-11T08:33:32.158Z,13.90
2022-10-11T08:34:33.728Z,12.95
2022-10-11T08:35:36.252Z,15.10
2022-10-11T08:36:37.963Z,14.48
2022-10-11T08:37:39.959Z,13.52
2022-10-11T08:38:41.740Z,12.85
2022-10-11T08:39:43.276Z,13.10
2022-10-11T08:40:49.163Z,13.52
2022-10-11T08:41:54.992Z,13.47
2022-10-11T08:43:03.094Z,13.48
2022-10-11T08:44:19.610Z,14.05
2022-10-11T08:45:27.383Z,13.63
2022-10-11T08:46:30.965Z,14.10
2022-10-11T08:47:42.516Z,12.82
2022-10-11T08:48:47.760Z,12.27
2022-10-11T08:49:49.476Z,14.40
2022-10-11T08:50:51.358Z,12.52
2022-10-11T08:52:00.096Z,12.48
2022-10-11T08:53:08.079Z,12.73
2022-10-11T08:54:47.048Z,11.85
2022-10-11T08:55:51.829Z,11.73
2022-10-11T08:56:53.430Z,11.68
2022-10-11T08:57:55.952Z,12.55
2022-10-11T08:59:04.967Z,11.35
2022-10-11T09:00:08.412Z,11.52
2022-10-11T09:01:14.735Z,11.35
2022-10-11T09:02:16.297Z,10.90
2022-10-11T09:03:27.515Z,11.25
2022-10-11T09:04:29.207Z,11.10
2022-10-11T09:05:52.097Z,11.23
2022-10-11T09:07:05.552Z,12.07
2022-10-11T09:08:16.048Z,11.07
2022-10-11T09:09:26.821Z,12.48
2022-10-11T09:10:37.130Z,10.77
2022-10-11T09:11:57.009Z,10.57
2022-10-11T09:13:20.188Z,10.07
2022-10-11T09:14:36.877Z,11.02
2022-10-11T09:15:55.924Z,11.02
2022-10-11T09:17:07.188Z,11.03
2022-10-11T09:18:37.243Z,10.85
2022-10-11T09:19:57.411Z,11.43
2022-10-11T09:21:23.953Z,11.10
2022-10-11T09:22:49.543Z,10.00
2022-10-11T09:23:51.058Z,10.00
2022-10-11T09:25:25.182Z,10.60
2022-10-11T09:26:35.921Z,10.23
2022-10-11T09:28:10.882Z,10.43
2022-10-11T09:29:24.952Z,9.57
2022-10-11T09:30:26.616Z,10.00
2022-10-11T09:31:28.229Z,10.43
2022-10-11T09:32:32.543Z,12.85
2022-10-11T09:33:34.724Z,11.45
2022-10-11T09:34:36.279Z,10.68
2022-10-11T09:35:43.176Z,11.65
2022-10-11T09:36:56.462Z,10.77
2022-10-11T09:38:04.651Z,10.55
2022-10-11T09:39:33.309Z,10.60
2022-10-11T09:41:19.891Z,11.32
2022-10-11T09:42:21.628Z,9.50
2022-10-11T09:43:23.195Z,10.07
2022-10-11T09:44:27.283Z,10.57
2022-10-11T09:45:28.878Z,10.65
2022-10-11T09:46:38.134Z,10.82
2022-10-11T09:47:39.680Z,10.68
2022-10-11T09:48:41.343Z,10.95
2022-10-11T09:49:47.738Z,11.02
2022-10-11T09:50:49.350Z,11.05
2022-10-11T09:51:53.672Z,11.52
2022-10-11T09:53:02.076Z,10.80
2022-10-11T09:54:05.379Z,11.18
2022-10-11T09:55:07.190Z,12.38
2022-10-11T09:56:09.680Z,11.48
2022-10-11T09:57:31.541Z,11.43
2022-10-11T09:58:34.770Z,10.38
2022-10-11T09:59:36.474Z,11.55
2022-10-11T10:00:38.908Z,12.07
2022-10-11T10:01:40.570Z,11.55
2022-10-11T10:02:47.516Z,10.65
2022-10-11T10:03:49.372Z,11.20
2022-10-11T10:04:53.801Z,11.25
2022-10-11T10:06:30.695Z,11.75
2022-10-11T10:07:32.991Z,10.68
2022-10-11T10:08:34.973Z,10.90
2022-10-11T10:09:36.550Z,10.98
2022-10-11T10:10:57.119Z,10.63
2022-10-11T10:12:01.328Z,10.13
2022-10-11T10:13:04.086Z,10.98
2022-10-11T10:14:05.698Z,10.95
2022-10-11T10:15:14.182Z,11.80
2022-10-11T10:16:32.284Z,11.27
2022-10-11T10:17:34.582Z,11.10
2022-10-11T10:18:44.881Z,10.88
2022-10-11T10:19:50.998Z,10.52
2022-10-11T10:20:57.080Z,9.88
2022-10-11T10:21:58.744Z,10.25
2022-10-11T10:23:33.355Z,10.07
2022-10-11T10:24:38.322Z,9.60
2022-10-11T10:25:43.783Z,10.30
2022-10-11T10:27:07.219Z,9.63
2022-10-11T10:28:26.618Z,9.93
2022-10-11T10:29:28.207Z,9.38
2022-10-11T10:30:35.239Z,10.60
2022-10-11T10:32:13.761Z,9.65
2022-10-11T10:33:17.128Z,9.23
2022-10-11T10:34:28.847Z,9.80
2022-10-11T10:35:48.798Z,9.23
2022-10-11T10:36:55.988Z,10.20
2022-10-11T10:38:16.671Z,9.32
2022-10-11T10:39:23.972Z,9.10
2022-10-11T10:40:30.131Z,9.13
2022-10-11T10:41:31.794Z,9.57
2022-10-11T10:42:33.365Z,10.55
2022-10-11T10:43:36.165Z,10.10
2022-10-11T10:44:37.723Z,8.85
2022-10-11T10:46:08.812Z,9.38
2022-10-11T10:47:20.809Z,9.43
2022-10-11T10:48:46.933Z,9.82
2022-10-11T10:50:16.268Z,9.40
2022-10-11T10:51:52.811Z,9.70
2022-10-11T10:53:04.348Z,9.70
2022-10-11T10:54:15.085Z,9.32
2022-10-11T10:55:33.840Z,9.45
2022-10-11T10:56:39.750Z,10.85
2022-10-11T10:58:04.155Z,10.30
2022-10-11T10:59:38.970Z,11.85
2022-10-11T11:00:50.380Z,12.88
2022-10-11T11:02:06.736Z,12.00
2022-10-11T11:03:56.058Z,11.02
2022-10-11T11:05:07.134Z,10.93
2022-10-11T11:06:12.314Z,10.77
2022-10-11T11:07:35.474Z,11.57
2022-10-11T11:09:11.612Z,10.43
2022-10-11T11:10:14.773Z,10.15
2022-10-11T11:11:25.073Z,10.93
2022-10-11T11:12:45.146Z,10.73
2022-10-11T11:13:52.910Z,10.70
2022-10-11T11:15:03.574Z,9.75
2022-10-11T11:16:13.677Z,10.85
2022-10-11T11:17:15.221Z,10.60
2022-10-11T11:18:35.176Z,10.23
2022-10-11T11:19:49.627Z,9.90
2022-10-11T11:20:53.971Z,10.50
2022-10-11T11:21:58.669Z,9.90
2022-10-11T11:23:18.564Z,10.20
2022-10-11T11:24:38.370Z,9.70
2022-10-11T11:26:09.082Z,10.57
2022-10-11T11:27:30.083Z,10.70
2022-10-11T11:28:49.584Z,11.43
2022-10-11T11:30:01.243Z,10.63
2022-10-11T11:31:21.392Z,10.25
2022-10-11T11:32:26.537Z,9.77
2022-10-11T11:33:48.501Z,11.45
2022-10-11T11:34:53.981Z,10.10
2022-10-11T11:35:56.687Z,10.98
2022-10-11T11:37:04.229Z,10.25
2022-10-11T11:38:16.406Z,10.15
2022-10-11T11:39:23.469Z,10.65
2022-10-11T11:40:34.852Z,11.10
2022-10-11T11:41:38.678Z,10.77
2022-10-11T11:42:51.510Z,10.60
2022-10-11T11:44:04.947Z,11.20
2022-10-11T11:45:15.984Z,11.10
2022-10-11T11:46:26.957Z,12.13
2022-10-11T11:47:36.941Z,13.90
2022-10-11T11:48:38.591Z,15.52
2022-10-11T11:49:45.275Z,16.83
2022-10-11T11:50:52.117Z,12.88
2022-10-11T11:51:53.655Z,11.98
2022-10-11T11:53:00.130Z,10.93
2022-10-11T11:54:28.971Z,12.90
2022-10-11T11:55:56.355Z,13.75
2022-10-11T11:57:05.240Z,11.55
2022-10-11T11:58:29.993Z,11.15
2022-10-11T11:59:34.259Z,10.88
2022-10-11T12:00:46.742Z,10.88
2022-10-11T12:02:43.282Z,12.15
2022-10-11T12:03:47.536Z,11.02
2022-10-11T12:04:49.195Z,10.38
2022-10-11T12:06:19.815Z,10.57
2022-10-11T12:07:22.776Z,11.32
2022-10-11T12:08:25.949Z,10.13
2022-10-11T12:09:27.535Z,10.90
2022-10-11T12:10:39.809Z,10.55
2022-10-11T12:11:55.973Z,10.60
2022-10-11T12:13:12.834Z,10.38
2022-10-11T12:14:22.268Z,9.82
2022-10-11T12:15:25.406Z,10.52
2022-10-11T12:16:27.734Z,10.77
2022-10-11T12:17:29.361Z,10.97
2022-10-11T12:18:31.462Z,11.13
2022-10-11T12:19:33.122Z,10.60
2022-10-11T12:20:41.765Z,11.18
2022-10-11T12:21:43.970Z,10.88
2022-10-11T12:23:23.479Z,12.13
2022-10-11T12:24:25.056Z,11.43
2022-10-11T12:25:26.585Z,10.68
2022-10-11T12:26:28.171Z,10.98
2022-10-11T12:27:46.732Z,11.75
2022-10-11T12:29:01.850Z,10.37
2022-10-11T12:30:05.136Z,10.60
2022-10-11T12:31:23.620Z,10.25
2022-10-11T12:32:27.916Z,10.85
2022-10-11T12:33:32.924Z,10.20
2022-10-11T12:34:35.906Z,10.15
2022-10-11T12:35:40.088Z,11.20
2022-10-11T12:36:42.448Z,10.55
2022-10-11T12:37:43.969Z,10.10
2022-10-11T12:38:45.622Z,10.63
2022-10-11T12:39:51.204Z,10.57
2022-10-11T12:40:54.885Z,11.00
2022-10-11T12:42:22.513Z,11.40
2022-10-11T12:43:27.200Z,10.35
2022-10-11T12:44:28.946Z,10.23
2022-10-11T12:45:32.279Z,10.07
2022-10-11T12:46:39.470Z,10.75
2022-10-11T12:48:05.472Z,11.02
2022-10-11T12:49:24.505Z,10.90
2022-10-11T12:50:43.959Z,10.98
2022-10-11T12:52:04.259Z,11.00
2022-10-11T12:53:30.318Z,10.75
2022-10-11T12:54:37.871Z,10.60
2022-10-11T12:56:09.314Z,10.27
2022-10-11T12:57:20.052Z,10.43
2022-10-11T12:58:38.779Z,10.07
2022-10-11T12:59:43.740Z,9.98
2022-10-11T13:00:50.956Z,10.30
2022-10-11T13:01:54.198Z,10.23
2022-10-11T13:02:56.830Z,10.27
2022-10-11T13:04:08.666Z,10.27
2022-10-11T13:05:26.000Z,10.30
2022-10-11T13:06:29.947Z,11.07
2022-10-11T13:07:31.519Z,10.75
2022-10-11T13:08:34.903Z,10.25
2022-10-11T13:09:39.932Z,10.48
2022-10-11T13:10:44.273Z,10.48
2022-10-11T13:11:48.591Z,11.07
2022-10-11T13:12:50.182Z,11.02
2022-10-11T13:13:56.840Z,10.10
2022-10-11T13:14:58.447Z,10.87
2022-10-11T13:16:04.215Z,10.48
2022-10-11T13:17:26.860Z,10.85
2022-10-11T13:18:28.408Z,10.75
2022-10-11T13:19:30.955Z,11.35
2022-10-11T13:20:37.432Z,10.73
2022-10-11T13:21:41.899Z,10.50
2022-10-11T13:22:44.385Z,10.65
2022-10-11T13:23:45.967Z,10.48
2022-10-11T13:24:47.531Z,10.25
2022-10-11T13:25:49.209Z,11.03
2022-10-11T13:26:51.966Z,10.48
2022-10-11T13:27:54.790Z,10.77
2022-10-11T13:28:56.521Z,10.60
2022-10-11T13:30:02.364Z,11.13
2022-10-11T13:31:04.481Z,9.85
2022-10-11T13:32:12.896Z,9.55
2022-10-11T13:33:32.448Z,10.02
2022-10-11T13:34:38.266Z,10.45
2022-10-11T13:35:39.832Z,10.70
2022-10-11T13:36:41.522Z,10.27
2022-10-11T13:37:45.447Z,10.70
2022-10-11T13:38:54.795Z,10.18
2022-10-11T13:39:56.876Z,10.45
2022-10-11T13:40:59.732Z,10.15
2022-10-11T13:42:01.903Z,10.43
2022-10-11T13:43:05.226Z,10.23
2022-10-11T13:44:06.832Z,11.50
2022-10-11T13:45:16.261Z,10.98
2022-10-11T13:46:23.307Z,11.68
2022-10-11T13:47:28.324Z,11.03
2022-10-11T13:48:32.293Z,11.25
2022-10-11T13:49:40.375Z,11.18
2022-10-11T13:50:46.299Z,11.65
2022-10-11T13:51:47.941Z,11.10
2022-10-11T13:52:56.226Z,11.80
2022-10-11T13:53:58.891Z,11.23
2022-10-11T13:55:00.746Z,11.60
2022-10-11T13:56:04.296Z,12.10
2022-10-11T13:57:06.141Z,12.25
2022-10-11T13:58:18.504Z,11.60
2022-10-11T13:59:24.359Z,12.02
2022-10-11T14:00:29.799Z,12.27
2022-10-11T14:01:41.326Z,13.25
2022-10-11T14:02:59.567Z,12.73
2022-10-11T14:04:02.895Z,12.90
2022-10-11T14:05:04.625Z,17.17
2022-10-11T14:06:06.586Z,15.32
2022-10-11T14:07:35.723Z,15.35
2022-10-11T14:08:50.499Z,13.57
2022-10-11T14:09:52.091Z,13.87
2022-10-11T14:10:57.178Z,13.90
2022-10-11T14:12:25.562Z,13.63
2022-10-11T14:13:32.186Z,12.95
2022-10-11T14:14:33.919Z,12.82
2022-10-11T14:15:37.165Z,12.77
2022-10-11T14:16:38.953Z,12.63
2022-10-11T14:17:42.476Z,11.65
2022-10-11T14:18:53.260Z,12.13
2022-10-11T14:20:11.908Z,12.13
2022-10-11T14:21:19.298Z,11.43
2022-10-11T14:22:20.891Z,12.38
2022-10-11T14:23:22.522Z,11.98
2022-10-11T14:24:24.142Z,12.30
2022-10-11T14:25:25.698Z,13.32